sensor_id;sensor_type;location;lat;lon;timestamp;pressure;altitude;pressure_sealevel;temperature;humidity
39443;BME280;25147;52.142;9.960;2023-07-24T00:01:16;99416.38;;;17.96;100.00
39443;BME280;25147;52.142;9.960;2023-07-24T00:03:44;99525.38;;;18.75;100.00
39443;BME280;25147;52.142;9.960;2023-07-24T00:06:11;99213.81;;;16.77;100.00
39443;BME280;25147;52.142;9.960;2023-07-24T00:08:38;99331.31;;;17.59;100.00
39443;BME280;25147;52.142;9.960;2023-07-24T00:11:08;99516.97;;;18.54;100.00
39443;BME280;25147;52.142;9.960;2023-07-24T00:13:35;99350.69;;;17.60;100.00
39443;BME280;25147;52.142;9.960;2023-07-24T00:16:07;99360.50;;;17.72;99.99
39443;BME280;25147;52.142;9.960;2023-07-24T00:18:34;99223.38;;;16.94;99.86
39443;BME280;25147;52.142;9.960;2023-07-24T00:21:01;99319.66;;;17.62;100.00
39443;BME280;25147;52.142;9.960;2023-07-24T00:23:29;99498.63;;;18.51;100.00
39443;BME280;25147;52.142;9.960;2023-07-24T00:25:56;99206.13;;;16.73;100.00
39443;BME280;25147;52.142;9.960;2023-07-24T00:28:25;99397.47;;;18.02;100.00
39443;BME280;25147;52.142;9.960;2023-07-24T00:30:52;99345.69;;;17.55;100.00
39443;BME280;25147;52.142;9.960;2023-07-24T00:33:19;99359.56;;;17.73;100.00
39443;BME280;25147;52.142;9.960;2023-07-24T00:35:46;99465.91;;;18.23;100.00
39443;BME280;25147;52.142;9.960;2023-07-24T00:38:13;99183.97;;;16.61;100.00
39443;BME280;25147;52.142;9.960;2023-07-24T00:40:40;99430.75;;;18.07;100.00
39443;BME280;25147;52.142;9.960;2023-07-24T00:43:07;99514.75;;;18.75;100.00
39443;BME280;25147;52.142;9.960;2023-07-24T00:45:36;99482.38;;;18.42;100.00
39443;BME280;25147;52.142;9.960;2023-07-24T00:48:03;99203.03;;;16.80;100.00
39443;BME280;25147;52.142;9.960;2023-07-24T00:50:31;99361.53;;;17.70;100.00
39443;BME280;25147;52.142;9.960;2023-07-24T00:53:01;99387.94;;;17.86;100.00
39443;BME280;25147;52.142;9.960;2023-07-24T00:55:29;99253.88;;;17.00;100.00
39443;BME280;25147;52.142;9.960;2023-07-24T00:57:57;99364.75;;;17.60;100.00
39443;BME280;25147;52.142;9.960;2023-07-24T01:00:25;99335.41;;;17.36;100.00
39443;BME280;25147;52.142;9.960;2023-07-24T01:02:55;99470.75;;;18.16;100.00
39443;BME280;25147;52.142;9.960;2023-07-24T01:05:25;99356.44;;;17.23;100.00
39443;BME280;25147;52.142;9.960;2023-07-24T01:07:52;99351.25;;;17.22;100.00
39443;BME280;25147;52.142;9.960;2023-07-24T01:10:19;99337.75;;;17.27;100.00
39443;BME280;25147;52.142;9.960;2023-07-24T01:12:51;99383.03;;;17.51;100.00
39443;BME280;25147;52.142;9.960;2023-07-24T01:15:24;99393.59;;;17.65;100.00
39443;BME280;25147;52.142;9.960;2023-07-24T01:18:00;99543.78;;;18.49;100.00
39443;BME280;25147;52.142;9.960;2023-07-24T01:20:29;99541.97;;;18.50;100.00
39443;BME280;25147;52.142;9.960;2023-07-24T01:23:14;99321.50;;;17.33;100.00
39443;BME280;25147;52.142;9.960;2023-07-24T01:25:53;99371.69;;;17.63;100.00
39443;BME280;25147;52.142;9.960;2023-07-24T01:28:26;99533.00;;;18.52;100.00
39443;BME280;25147;52.142;9.960;2023-07-24T01:30:54;99383.38;;;17.73;100.00
39443;BME280;25147;52.142;9.960;2023-07-24T01:33:22;99320.06;;;17.27;100.00
39443;BME280;25147;52.142;9.960;2023-07-24T01:35:51;99308.75;;;17.25;100.00
39443;BME280;25147;52.142;9.960;2023-07-24T01:38:21;99525.69;;;18.56;100.00
39443;BME280;25147;52.142;9.960;2023-07-24T01:40:53;99237.34;;;16.82;100.00
39443;BME280;25147;52.142;9.960;2023-07-24T01:43:21;99255.06;;;16.80;100.00
39443;BME280;25147;52.142;9.960;2023-07-24T01:45:48;99443.91;;;18.08;100.00
39443;BME280;25147;52.142;9.960;2023-07-24T01:48:15;99189.44;;;16.58;100.00
39443;BME280;25147;52.142;9.960;2023-07-24T01:50:42;99320.81;;;17.43;100.00
39443;BME280;25147;52.142;9.960;2023-07-24T01:53:09;99203.09;;;16.64;100.00
39443;BME280;25147;52.142;9.960;2023-07-24T01:55:36;99401.28;;;17.84;100.00
39443;BME280;25147;52.142;9.960;2023-07-24T01:58:04;99494.09;;;18.38;100.00
39443;BME280;25147;52.142;9.960;2023-07-24T02:00:31;99329.06;;;17.24;100.00
39443;BME280;25147;52.142;9.960;2023-07-24T02:02:59;99349.00;;;17.59;100.00
39443;BME280;25147;52.142;9.960;2023-07-24T02:05:26;99378.00;;;17.75;100.00
39443;BME280;25147;52.142;9.960;2023-07-24T02:07:53;99431.59;;;18.07;100.00
39443;BME280;25147;52.142;9.960;2023-07-24T02:10:20;99363.81;;;17.61;100.00
39443;BME280;25147;52.142;9.960;2023-07-24T02:12:47;99183.97;;;16.61;100.00
39443;BME280;25147;52.142;9.960;2023-07-24T02:15:15;99160.28;;;16.45;100.00
39443;BME280;25147;52.142;9.960;2023-07-24T02:17:43;99363.06;;;17.74;100.00
39443;BME280;25147;52.142;9.960;2023-07-24T02:20:13;99312.97;;;17.28;100.00
39443;BME280;25147;52.142;9.960;2023-07-24T02:22:40;99300.72;;;17.27;100.00
39443;BME280;25147;52.142;9.960;2023-07-24T02:25:10;99518.25;;;18.48;100.00
39443;BME280;25147;52.142;9.960;2023-07-24T02:27:37;99400.28;;;17.71;100.00
39443;BME280;25147;52.142;9.960;2023-07-24T02:30:05;99345.97;;;17.51;100.00
39443;BME280;25147;52.142;9.960;2023-07-24T02:32:33;99354.00;;;17.49;100.00
39443;BME280;25147;52.142;9.960;2023-07-24T02:35:00;99404.94;;;17.67;100.00
39443;BME280;25147;52.142;9.960;2023-07-24T02:37:27;99304.19;;;16.98;100.00
39443;BME280;25147;52.142;9.960;2023-07-24T02:39:57;99296.44;;;16.95;100.00
39443;BME280;25147;52.142;9.960;2023-07-24T02:42:25;99320.91;;;17.13;100.00
39443;BME280;25147;52.142;9.960;2023-07-24T02:44:52;99328.06;;;16.97;100.00
39443;BME280;25147;52.142;9.960;2023-07-24T02:47:19;99156.59;;;16.03;100.00
39443;BME280;25147;52.142;9.960;2023-07-24T02:49:48;99370.03;;;17.32;100.00
39443;BME280;25147;52.142;9.960;2023-07-24T02:52:15;99288.22;;;16.86;100.00
39443;BME280;25147;52.142;9.960;2023-07-24T02:54:42;99159.09;;;16.06;100.00
39443;BME280;25147;52.142;9.960;2023-07-24T02:57:09;99280.47;;;16.82;100.00
39443;BME280;25147;52.142;9.960;2023-07-24T02:59:36;99278.00;;;16.79;100.00
39443;BME280;25147;52.142;9.960;2023-07-24T03:02:04;99214.31;;;16.39;100.00
39443;BME280;25147;52.142;9.960;2023-07-24T03:04:31;99390.97;;;17.36;100.00
39443;BME280;25147;52.142;9.960;2023-07-24T03:06:59;99274.28;;;16.68;100.00
39443;BME280;25147;52.142;9.960;2023-07-24T03:09:26;99345.97;;;17.08;100.00
39443;BME280;25147;52.142;9.960;2023-07-24T03:11:53;99294.00;;;16.62;100.00
39443;BME280;25147;52.142;9.960;2023-07-24T03:14:20;99326.38;;;16.96;100.00
39443;BME280;25147;52.142;9.960;2023-07-24T03:16:47;99423.34;;;17.40;100.00
39443;BME280;25147;52.142;9.960;2023-07-24T03:19:14;99125.09;;;15.70;100.00
39443;BME280;25147;52.142;9.960;2023-07-24T03:21:43;99154.22;;;15.84;100.00
39443;BME280;25147;52.142;9.960;2023-07-24T03:24:11;99182.75;;;15.77;100.00
39443;BME280;25147;52.142;9.960;2023-07-24T03:26:38;99168.88;;;15.74;100.00
39443;BME280;25147;52.142;9.960;2023-07-24T03:29:05;99267.59;;;16.32;100.00
39443;BME280;25147;52.142;9.960;2023-07-24T03:31:32;99270.44;;;16.29;100.00
39443;BME280;25147;52.142;9.960;2023-07-24T03:33:59;99338.03;;;16.77;100.00
39443;BME280;25147;52.142;9.960;2023-07-24T03:36:26;99378.34;;;16.81;100.00
39443;BME280;25147;52.142;9.960;2023-07-24T03:38:53;99365.53;;;16.89;100.00
39443;BME280;25147;52.142;9.960;2023-07-24T03:41:22;99141.44;;;15.60;100.00
39443;BME280;25147;52.142;9.960;2023-07-24T03:43:49;99424.09;;;17.28;100.00
39443;BME280;25147;52.142;9.960;2023-07-24T03:46:18;99162.56;;;15.60;100.00
39443;BME280;25147;52.142;9.960;2023-07-24T03:48:45;99268.53;;;16.31;100.00
39443;BME280;25147;52.142;9.960;2023-07-24T03:51:14;99336.69;;;16.70;100.00
39443;BME280;25147;52.142;9.960;2023-07-24T03:53:41;99245.13;;;16.24;100.00
39443;BME280;25147;52.142;9.960;2023-07-24T03:56:14;99329.31;;;16.61;100.00
39443;BME280;25147;52.142;9.960;2023-07-24T03:58:44;99191.13;;;16.00;100.00
39443;BME280;25147;52.142;9.960;2023-07-24T04:01:11;99421.34;;;17.29;100.00
39443;BME280;25147;52.142;9.960;2023-07-24T04:03:38;99315.91;;;16.64;100.00
39443;BME280;25147;52.142;9.960;2023-07-24T04:06:06;99145.81;;;15.45;100.00
39443;BME280;25147;52.142;9.960;2023-07-24T04:08:33;99171.50;;;15.74;100.00
39443;BME280;25147;52.142;9.960;2023-07-24T04:11:00;99358.66;;;16.71;100.00
39443;BME280;25147;52.142;9.960;2023-07-24T04:13:30;99260.56;;;16.16;100.00
39443;BME280;25147;52.142;9.960;2023-07-24T04:15:58;99094.56;;;15.19;100.00
39443;BME280;25147;52.142;9.960;2023-07-24T04:18:27;99080.25;;;15.23;100.00
39443;BME280;25147;52.142;9.960;2023-07-24T04:20:58;99242.38;;;16.26;100.00
39443;BME280;25147;52.142;9.960;2023-07-24T04:23:25;99473.63;;;17.54;100.00
39443;BME280;25147;52.142;9.960;2023-07-24T04:25:52;99441.41;;;17.48;100.00
39443;BME280;25147;52.142;9.960;2023-07-24T04:28:19;99244.84;;;16.29;100.00
39443;BME280;25147;52.142;9.960;2023-07-24T04:30:46;99228.41;;;16.24;100.00
39443;BME280;25147;52.142;9.960;2023-07-24T04:33:17;99145.34;;;15.69;100.00
39443;BME280;25147;52.142;9.960;2023-07-24T04:35:47;99357.38;;;17.08;100.00
39443;BME280;25147;52.142;9.960;2023-07-24T04:38:14;99366.38;;;17.34;100.00
39443;BME280;25147;52.142;9.960;2023-07-24T04:40:43;99310.44;;;17.12;100.00
39443;BME280;25147;52.142;9.960;2023-07-24T04:43:10;99206.03;;;16.60;100.00
39443;BME280;25147;52.142;9.960;2023-07-24T04:45:37;99416.00;;;18.02;100.00
39443;BME280;25147;52.142;9.960;2023-07-24T04:48:05;99062.91;;;16.10;100.00
39443;BME280;25147;52.142;9.960;2023-07-24T04:50:33;99056.59;;;16.13;100.00
39443;BME280;25147;52.142;9.960;2023-07-24T04:53:00;99313.59;;;17.89;100.00
39443;BME280;25147;52.142;9.960;2023-07-24T04:55:28;99391.03;;;18.61;100.00
39443;BME280;25147;52.142;9.960;2023-07-24T04:57:55;99314.94;;;18.36;100.00
39443;BME280;25147;52.142;9.960;2023-07-24T05:00:22;99392.66;;;19.16;100.00
39443;BME280;25147;52.142;9.960;2023-07-24T05:02:49;99231.44;;;18.43;100.00
39443;BME280;25147;52.142;9.960;2023-07-24T05:05:16;99398.19;;;19.52;100.00
39443;BME280;25147;52.142;9.960;2023-07-24T05:07:45;99270.63;;;18.91;98.34
39443;BME280;25147;52.142;9.960;2023-07-24T05:10:12;99071.47;;;17.93;96.63
39443;BME280;25147;52.142;9.960;2023-07-24T05:12:40;99271.34;;;19.44;95.49
39443;BME280;25147;52.142;9.960;2023-07-24T05:15:08;99261.34;;;19.35;93.66
39443;BME280;25147;52.142;9.960;2023-07-24T05:17:36;99153.72;;;18.68;93.02
39443;BME280;25147;52.142;9.960;2023-07-24T05:20:03;99121.00;;;18.56;93.44
39443;BME280;25147;52.142;9.960;2023-07-24T05:22:33;99003.78;;;17.63;92.96
39443;BME280;25147;52.142;9.960;2023-07-24T05:25:01;98972.13;;;17.61;93.23
39443;BME280;25147;52.142;9.960;2023-07-24T05:27:28;99363.88;;;19.87;93.42
39443;BME280;25147;52.142;9.960;2023-07-24T05:29:56;99289.16;;;19.29;93.94
39443;BME280;25147;52.142;9.960;2023-07-24T05:32:23;99084.25;;;17.73;94.58
39443;BME280;25147;52.142;9.960;2023-07-24T05:34:50;99188.72;;;18.35;95.24
39443;BME280;25147;52.142;9.960;2023-07-24T05:37:17;99191.59;;;18.44;96.05
39443;BME280;25147;52.142;9.960;2023-07-24T05:39:44;99181.38;;;18.25;96.28
39443;BME280;25147;52.142;9.960;2023-07-24T05:42:16;99201.72;;;18.25;96.68
39443;BME280;25147;52.142;9.960;2023-07-24T05:44:43;99191.28;;;17.96;97.58
39443;BME280;25147;52.142;9.960;2023-07-24T05:47:12;99060.09;;;17.25;98.23
39443;BME280;25147;52.142;9.960;2023-07-24T05:49:42;99039.84;;;17.11;98.36
39443;BME280;25147;52.142;9.960;2023-07-24T05:52:12;99000.66;;;16.76;98.65
39443;BME280;25147;52.142;9.960;2023-07-24T05:54:39;99037.47;;;16.94;99.82
39443;BME280;25147;52.142;9.960;2023-07-24T05:57:06;99042.66;;;16.81;100.00
39443;BME280;25147;52.142;9.960;2023-07-24T05:59:35;99320.38;;;18.47;100.00
39443;BME280;25147;52.142;9.960;2023-07-24T06:02:02;99243.09;;;18.00;100.00
39443;BME280;25147;52.142;9.960;2023-07-24T06:04:29;99370.03;;;18.85;100.00
39443;BME280;25147;52.142;9.960;2023-07-24T06:06:56;99010.56;;;16.73;100.00
39443;BME280;25147;52.142;9.960;2023-07-24T06:09:23;99148.59;;;17.61;100.00
39443;BME280;25147;52.142;9.960;2023-07-24T06:11:50;99363.44;;;18.91;100.00
39443;BME280;25147;52.142;9.960;2023-07-24T06:14:17;99282.75;;;18.42;100.00
39443;BME280;25147;52.142;9.960;2023-07-24T06:16:46;99181.97;;;17.76;100.00
39443;BME280;25147;52.142;9.960;2023-07-24T06:19:13;99307.06;;;18.61;100.00
39443;BME280;25147;52.142;9.960;2023-07-24T06:21:41;99030.66;;;17.17;100.00
39443;BME280;25147;52.142;9.960;2023-07-24T06:24:12;99008.44;;;17.19;100.00
39443;BME280;25147;52.142;9.960;2023-07-24T06:26:39;99214.06;;;18.52;100.00
39443;BME280;25147;52.142;9.960;2023-07-24T06:29:06;98950.41;;;16.91;100.00
39443;BME280;25147;52.142;9.960;2023-07-24T06:31:34;99118.63;;;18.13;100.00
39443;BME280;25147;52.142;9.960;2023-07-24T06:34:04;98939.25;;;17.13;99.99
39443;BME280;25147;52.142;9.960;2023-07-24T06:36:34;99176.97;;;18.64;98.80
39443;BME280;25147;52.142;9.960;2023-07-24T06:39:02;99314.94;;;19.53;98.47
39443;BME280;25147;52.142;9.960;2023-07-24T06:41:34;99183.53;;;18.72;97.97
39443;BME280;25147;52.142;9.960;2023-07-24T06:44:02;99114.41;;;18.23;97.21
39443;BME280;25147;52.142;9.960;2023-07-24T06:46:29;99301.78;;;19.51;96.75
39443;BME280;25147;52.142;9.960;2023-07-24T06:48:56;99313.97;;;19.67;95.80
39443;BME280;25147;52.142;9.960;2023-07-24T06:51:25;99228.16;;;19.16;95.38
39443;BME280;25147;52.142;9.960;2023-07-24T06:53:53;99337.63;;;19.70;95.44
39443;BME280;25147;52.142;9.960;2023-07-24T06:56:20;99167.94;;;18.80;94.49
39443;BME280;25147;52.142;9.960;2023-07-24T06:58:48;98994.69;;;17.67;93.92
39443;BME280;25147;52.142;9.960;2023-07-24T07:01:15;99189.28;;;18.91;93.67
39443;BME280;25147;52.142;9.960;2023-07-24T07:03:42;99096.28;;;18.17;93.97
39443;BME280;25147;52.142;9.960;2023-07-24T07:06:13;98978.16;;;17.63;93.63
39443;BME280;25147;52.142;9.960;2023-07-24T07:08:43;98989.69;;;17.75;92.68
39443;BME280;25147;52.142;9.960;2023-07-24T07:11:10;99002.88;;;17.90;92.80
39443;BME280;25147;52.142;9.960;2023-07-24T07:13:38;98953.81;;;17.84;92.96
39443;BME280;25147;52.142;9.960;2023-07-24T07:16:05;99243.16;;;19.54;92.18
39443;BME280;25147;52.142;9.960;2023-07-24T07:18:35;98968.09;;;18.07;91.07
39443;BME280;25147;52.142;9.960;2023-07-24T07:21:02;99169.31;;;19.35;90.51
39443;BME280;25147;52.142;9.960;2023-07-24T07:23:32;99234.53;;;19.76;90.14
39443;BME280;25147;52.142;9.960;2023-07-24T07:26:00;99156.91;;;19.36;88.98
39443;BME280;25147;52.142;9.960;2023-07-24T07:28:28;99291.84;;;20.27;88.69
39443;BME280;25147;52.142;9.960;2023-07-24T07:30:57;99301.13;;;20.46;88.52
39443;BME280;25147;52.142;9.960;2023-07-24T07:33:25;98944.25;;;18.20;88.25
39443;BME280;25147;52.142;9.960;2023-07-24T07:35:52;98991.84;;;18.45;87.83
39443;BME280;25147;52.142;9.960;2023-07-24T07:38:19;98966.97;;;18.35;87.80
39443;BME280;25147;52.142;9.960;2023-07-24T07:40:50;99084.25;;;19.13;87.50
39443;BME280;25147;52.142;9.960;2023-07-24T07:43:21;99081.41;;;19.16;86.75
39443;BME280;25147;52.142;9.960;2023-07-24T07:45:48;99154.41;;;19.70;85.63
39443;BME280;25147;52.142;9.960;2023-07-24T07:48:19;99077.00;;;19.28;84.48
39443;BME280;25147;52.142;9.960;2023-07-24T07:50:50;98969.38;;;18.88;84.02
39443;BME280;25147;52.142;9.960;2023-07-24T07:53:17;98942.78;;;18.77;83.39
39443;BME280;25147;52.142;9.960;2023-07-24T07:55:55;99265.72;;;20.80;82.42
39443;BME280;25147;52.142;9.960;2023-07-24T07:58:24;98939.25;;;18.89;82.41
39443;BME280;25147;52.142;9.960;2023-07-24T08:00:56;99087.72;;;19.74;82.94
39443;BME280;25147;52.142;9.960;2023-07-24T08:03:24;99277.22;;;21.03;82.14
39443;BME280;25147;52.142;9.960;2023-07-24T08:05:52;99092.94;;;19.87;81.27
39443;BME280;25147;52.142;9.960;2023-07-24T08:08:23;99157.69;;;20.55;80.66
39443;BME280;25147;52.142;9.960;2023-07-24T08:10:54;99150.56;;;20.56;80.79
39443;BME280;25147;52.142;9.960;2023-07-24T08:13:25;99284.34;;;21.37;80.02
39443;BME280;25147;52.142;9.960;2023-07-24T08:15:54;99121.66;;;20.40;81.31
39443;BME280;25147;52.142;9.960;2023-07-24T08:18:22;99090.06;;;20.01;82.39
39443;BME280;25147;52.142;9.960;2023-07-24T08:20:55;98983.56;;;19.47;82.44
39443;BME280;25147;52.142;9.960;2023-07-24T08:23:29;99163.22;;;20.41;82.27
39443;BME280;25147;52.142;9.960;2023-07-24T08:25:58;99107.06;;;19.88;83.83
39443;BME280;25147;52.142;9.960;2023-07-24T08:28:33;99217.44;;;20.27;84.75
39443;BME280;25147;52.142;9.960;2023-07-24T08:31:01;98994.34;;;18.73;85.68
39443;BME280;25147;52.142;9.960;2023-07-24T08:33:34;98966.97;;;18.35;87.10
39443;BME280;25147;52.142;9.960;2023-07-24T08:36:08;99215.59;;;19.81;88.65
39443;BME280;25147;52.142;9.960;2023-07-24T08:38:44;98974.28;;;18.44;89.19
39443;BME280;25147;52.142;9.960;2023-07-24T08:41:14;98898.84;;;18.00;89.84
39443;BME280;25147;52.142;9.960;2023-07-24T08:43:43;99212.13;;;19.92;89.41
39443;BME280;25147;52.142;9.960;2023-07-24T08:46:10;98959.88;;;18.36;89.31
39443;BME280;25147;52.142;9.960;2023-07-24T08:48:39;98993.31;;;18.50;88.85
39443;BME280;25147;52.142;9.960;2023-07-24T08:51:09;99156.16;;;19.34;89.51
39443;BME280;25147;52.142;9.960;2023-07-24T08:53:38;99108.16;;;19.37;89.62
39443;BME280;25147;52.142;9.960;2023-07-24T08:56:09;99006.84;;;18.83;88.99
39443;BME280;25147;52.142;9.960;2023-07-24T08:58:43;98999.50;;;18.87;86.38
39443;BME280;25147;52.142;9.960;2023-07-24T09:01:17;98937.47;;;18.53;85.91
39443;BME280;25147;52.142;9.960;2023-07-24T09:03:47;99112.94;;;19.80;85.69
39443;BME280;25147;52.142;9.960;2023-07-24T09:06:15;99109.69;;;19.76;85.71
39443;BME280;25147;52.142;9.960;2023-07-24T09:08:43;99035.59;;;19.25;84.42
39443;BME280;25147;52.142;9.960;2023-07-24T09:11:14;99060.09;;;19.53;83.54
39443;BME280;25147;52.142;9.960;2023-07-24T09:13:43;99136.59;;;20.18;83.29
39443;BME280;25147;52.142;9.960;2023-07-24T09:16:26;98994.13;;;19.24;82.91
39443;BME280;25147;52.142;9.960;2023-07-24T09:18:53;99117.88;;;20.31;82.33
39443;BME280;25147;52.142;9.960;2023-07-24T09:21:29;98983.56;;;19.47;81.98
39443;BME280;25147;52.142;9.960;2023-07-24T09:23:57;99107.78;;;20.48;80.30
39443;BME280;25147;52.142;9.960;2023-07-24T09:26:26;99301.91;;;21.73;79.94
39443;BME280;25147;52.142;9.960;2023-07-24T09:28:55;99174.66;;;20.77;79.74
39443;BME280;25147;52.142;9.960;2023-07-24T09:31:34;98991.41;;;19.72;78.99
39443;BME280;25147;52.142;9.960;2023-07-24T09:34:02;99008.19;;;19.95;79.53
39443;BME280;25147;52.142;9.960;2023-07-24T09:36:38;99003.25;;;19.91;78.99
39443;BME280;25147;52.142;9.960;2023-07-24T09:39:08;99135.00;;;20.74;78.33
39443;BME280;25147;52.142;9.960;2023-07-24T09:41:37;98939.78;;;19.52;77.40
39443;BME280;25147;52.142;9.960;2023-07-24T09:44:11;99150.97;;;20.85;76.26
39443;BME280;25147;52.142;9.960;2023-07-24T09:46:43;98918.66;;;19.51;76.99
39443;BME280;25147;52.142;9.960;2023-07-24T09:49:14;99176.72;;;21.07;76.97
39443;BME280;25147;52.142;9.960;2023-07-24T09:51:43;98991.91;;;19.89;76.96
39443;BME280;25147;52.142;9.960;2023-07-24T09:54:23;99174.66;;;20.99;77.78
39443;BME280;25147;52.142;9.960;2023-07-24T09:56:55;99173.06;;;21.08;75.87
39443;BME280;25147;52.142;9.960;2023-07-24T09:59:29;99176.72;;;21.07;75.46
39443;BME280;25147;52.142;9.960;2023-07-24T10:01:58;99160.13;;;21.15;75.22
39443;BME280;25147;52.142;9.960;2023-07-24T10:04:26;99030.28;;;20.41;75.59
39443;BME280;25147;52.142;9.960;2023-07-24T10:06:53;99121.44;;;21.11;74.97
39443;BME280;25147;52.142;9.960;2023-07-24T10:09:30;99033.06;;;20.51;74.52
39443;BME280;25147;52.142;9.960;2023-07-24T10:11:57;99052.19;;;20.78;74.28
39443;BME280;25147;52.142;9.960;2023-07-24T10:14:28;99161.84;;;21.59;74.68
39443;BME280;25147;52.142;9.960;2023-07-24T10:17:03;99153.31;;;21.77;73.83
39443;BME280;25147;52.142;9.960;2023-07-24T10:19:41;99155.47;;;22.04;72.82
39443;BME280;25147;52.142;9.960;2023-07-24T10:22:09;99170.25;;;22.08;72.69
39443;BME280;25147;52.142;9.960;2023-07-24T10:24:44;99121.91;;;22.13;70.93
39443;BME280;25147;52.142;9.960;2023-07-24T10:27:11;99072.66;;;21.96;71.33
39443;BME280;25147;52.142;9.960;2023-07-24T10:29:38;99127.47;;;22.10;70.38
39443;BME280;25147;52.142;9.960;2023-07-24T10:32:18;99262.59;;;23.05;71.22
39443;BME280;25147;52.142;9.960;2023-07-24T10:34:45;99067.44;;;21.84;70.90
39443;BME280;25147;52.142;9.960;2023-07-24T10:37:31;99243.91;;;23.05;69.79
39443;BME280;25147;52.142;9.960;2023-07-24T10:39:59;99131.84;;;22.32;69.21
39443;BME280;25147;52.142;9.960;2023-07-24T10:42:26;99110.53;;;22.32;68.34
39443;BME280;25147;52.142;9.960;2023-07-24T10:45:03;99103.47;;;22.31;68.74
39443;BME280;25147;52.142;9.960;2023-07-24T10:47:39;99191.91;;;22.78;66.67
39443;BME280;25147;52.142;9.960;2023-07-24T10:50:07;99024.16;;;22.02;66.70
39443;BME280;25147;52.142;9.960;2023-07-24T10:52:34;98877.50;;;21.21;66.75
39443;BME280;25147;52.142;9.960;2023-07-24T10:55:05;99210.69;;;23.38;67.65
39443;BME280;25147;52.142;9.960;2023-07-24T10:57:35;98939.59;;;21.73;66.76
39443;BME280;25147;52.142;9.960;2023-07-24T11:00:08;99214.56;;;23.64;66.60
39443;BME280;25147;52.142;9.960;2023-07-24T11:02:47;99101.44;;;23.15;65.91
39443;BME280;25147;52.142;9.960;2023-07-24T11:05:18;99178.28;;;23.62;64.90
39443;BME280;25147;52.142;9.960;2023-07-24T11:07:46;99206.47;;;24.05;63.45
39443;BME280;25147;52.142;9.960;2023-07-24T11:10:22;98930.03;;;22.32;62.43
39443;BME280;25147;52.142;9.960;2023-07-24T11:12:56;99095.44;;;23.52;62.67
39443;BME280;25147;52.142;9.960;2023-07-24T11:15:26;99244.03;;;24.42;62.82
39443;BME280;25147;52.142;9.960;2023-07-24T11:17:59;99228.25;;;24.49;62.14
39443;BME280;25147;52.142;9.960;2023-07-24T11:20:30;98886.44;;;22.43;61.38
39443;BME280;25147;52.142;9.960;2023-07-24T11:23:01;99025.00;;;23.24;61.60
39443;BME280;25147;52.142;9.960;2023-07-24T11:25:31;99029.22;;;23.27;61.45
39443;BME280;25147;52.142;9.960;2023-07-24T11:28:06;99014.34;;;23.14;61.55
39443;BME280;25147;52.142;9.960;2023-07-24T11:30:41;98887.28;;;22.43;60.20
39443;BME280;25147;52.142;9.960;2023-07-24T11:33:11;99152.41;;;24.01;59.33
39443;BME280;25147;52.142;9.960;2023-07-24T11:35:40;98917.19;;;22.67;59.21
39443;BME280;25147;52.142;9.960;2023-07-24T11:38:15;99084.44;;;23.75;57.79
39443;BME280;25147;52.142;9.960;2023-07-24T11:40:44;98922.41;;;22.78;57.66
39443;BME280;25147;52.142;9.960;2023-07-24T11:43:20;99139.47;;;24.07;56.72
39443;BME280;25147;52.142;9.960;2023-07-24T11:45:52;99034.00;;;23.62;56.16
39443;BME280;25147;52.142;9.960;2023-07-24T11:48:22;98892.06;;;22.79;56.09
39443;BME280;25147;52.142;9.960;2023-07-24T11:50:55;98920.72;;;22.87;56.12
39443;BME280;25147;52.142;9.960;2023-07-24T11:53:25;99051.84;;;23.71;56.46
39443;BME280;25147;52.142;9.960;2023-07-24T11:55:57;99081.94;;;23.83;56.80
39443;BME280;25147;52.142;9.960;2023-07-24T11:58:30;98971.69;;;22.93;56.74
39443;BME280;25147;52.142;9.960;2023-07-24T12:00:57;98884.19;;;22.48;57.20
39443;BME280;25147;52.142;9.960;2023-07-24T12:03:29;98880.66;;;22.38;57.79
39443;BME280;25147;52.142;9.960;2023-07-24T12:05:59;98894.69;;;22.40;57.17
39443;BME280;25147;52.142;9.960;2023-07-24T12:08:31;99017.97;;;23.03;57.61
39443;BME280;25147;52.142;9.960;2023-07-24T12:11:15;98864.94;;;22.25;57.73
39443;BME280;25147;52.142;9.960;2023-07-24T12:13:42;99003.34;;;23.08;57.84
39443;BME280;25147;52.142;9.960;2023-07-24T12:16:13;98986.44;;;22.97;57.79
39443;BME280;25147;52.142;9.960;2023-07-24T12:18:45;98871.16;;;22.14;57.55
39443;BME280;25147;52.142;9.960;2023-07-24T12:21:15;98979.16;;;22.80;57.74
39443;BME280;25147;52.142;9.960;2023-07-24T12:23:44;98999.84;;;23.07;56.35
39443;BME280;25147;52.142;9.960;2023-07-24T12:26:14;98887.00;;;22.37;56.58
39443;BME280;25147;52.142;9.960;2023-07-24T12:28:41;99032.84;;;23.55;56.77
39443;BME280;25147;52.142;9.960;2023-07-24T12:31:08;99166.00;;;24.47;55.99
39443;BME280;25147;52.142;9.960;2023-07-24T12:33:37;98848.41;;;22.80;55.36
39443;BME280;25147;52.142;9.960;2023-07-24T12:36:12;99150.19;;;24.73;55.90
39443;BME280;25147;52.142;9.960;2023-07-24T12:38:44;98977.44;;;23.67;54.14
39443;BME280;25147;52.142;9.960;2023-07-24T12:41:16;98890.81;;;23.02;53.95
39443;BME280;25147;52.142;9.960;2023-07-24T12:43:44;98865.25;;;22.90;54.64
39443;BME280;25147;52.142;9.960;2023-07-24T12:46:15;99019.50;;;23.84;54.72
39443;BME280;25147;52.142;9.960;2023-07-24T12:48:47;98884.06;;;22.89;54.66
39443;BME280;25147;52.142;9.960;2023-07-24T12:51:30;99152.16;;;24.71;54.98
39443;BME280;25147;52.142;9.960;2023-07-24T12:53:58;98868.03;;;22.69;59.18
39443;BME280;25147;52.142;9.960;2023-07-24T12:56:25;98887.47;;;22.21;61.81
39443;BME280;25147;52.142;9.960;2023-07-24T12:58:52;98848.31;;;21.71;63.85
39443;BME280;25147;52.142;9.960;2023-07-24T13:01:22;99044.88;;;22.40;65.76
39443;BME280;25147;52.142;9.960;2023-07-24T13:03:49;98892.47;;;21.43;67.19
39443;BME280;25147;52.142;9.960;2023-07-24T13:06:17;99048.22;;;22.33;68.46